エカテリンブルク の空港の天気 - METARとTAF

コルツォヴォ空港 ( USSS / SVX ) - ロシア エカテリンブルク
飛行場実況気象(Metar)
観測時間09/23 05:00 YEKT (09/23 00:00 UTC)
風向・風速静穏 0m/s
視程10km以上
天気現象
全天を覆う雲 雲底高度 1190m
気温5℃
湿度81%
気圧1028hPa
METARUSSS 230000Z 00000MPS 9999 OVC039 05/02 Q1028 R08L/010060 R08R/250060 NOSIG RMK QFE751/1001
過去の天気等 Google飛行場航空写真 Wunderground天気予報

過去48時間のMETAR

飛行場予報(TAF)
発表時間: 9/23 03:51 YEKT (9/22 22:51 UTC)
予報対象時間: 23日5時 YEKT ~ 24日5時 YEKT
風向・風速北北東 3m/s
視程6000m
全天の8割程度の雲 雲底高度 490m
23日5時 YEKT ~ 23日7時 YEKT に一時的に
視程300m
天気現象
23日9時 YEKT から
風向・風速東 3m/s 瞬間風速 10m/s
視程10km以上
全天の8割程度の雲 雲底高度 910m
23日20時 YEKT から
風向・風速南 3m/s
視程6000m
全天の4割程度の雲 雲底高度 610m
TAF USSS 222251Z 2300/2324 02003MPS 6000 BKN016
TEMPO 2300/2302 0300 FG
FM230400 10003G10MPS 9999 BKN030
FM231500 17003MPS 6000 SCT020